sensor_id;sensor_type;location;lat;lon;timestamp;P1;durP1;ratioP1;P2;durP2;ratioP2
15905;SDS011;8051;50.820;4.884;2023-02-28T00:01:10;25.37;;;23.37;;
15905;SDS011;8051;50.820;4.884;2023-02-28T00:03:38;24.57;;;22.67;;
15905;SDS011;8051;50.820;4.884;2023-02-28T00:06:05;24.80;;;22.87;;
15905;SDS011;8051;50.820;4.884;2023-02-28T00:08:34;25.93;;;24.10;;
15905;SDS011;8051;50.820;4.884;2023-02-28T00:11:02;24.60;;;22.97;;
15905;SDS011;8051;50.820;4.884;2023-02-28T00:13:30;24.67;;;22.77;;
15905;SDS011;8051;50.820;4.884;2023-02-28T00:16:00;25.13;;;23.53;;
15905;SDS011;8051;50.820;4.884;2023-02-28T00:18:30;24.77;;;22.87;;
15905;SDS011;8051;50.820;4.884;2023-02-28T00:20:58;25.57;;;23.30;;
15905;SDS011;8051;50.820;4.884;2023-02-28T00:23:25;23.70;;;22.00;;
15905;SDS011;8051;50.820;4.884;2023-02-28T00:25:53;24.90;;;23.00;;
15905;SDS011;8051;50.820;4.884;2023-02-28T00:28:21;25.53;;;23.40;;
15905;SDS011;8051;50.820;4.884;2023-02-28T00:30:49;24.03;;;22.43;;
15905;SDS011;8051;50.820;4.884;2023-02-28T00:33:16;25.37;;;23.37;;
15905;SDS011;8051;50.820;4.884;2023-02-28T00:35:45;25.93;;;24.03;;
15905;SDS011;8051;50.820;4.884;2023-02-28T00:38:14;26.07;;;24.10;;
15905;SDS011;8051;50.820;4.884;2023-02-28T00:40:42;26.97;;;24.37;;
15905;SDS011;8051;50.820;4.884;2023-02-28T00:43:09;25.90;;;24.30;;
15905;SDS011;8051;50.820;4.884;2023-02-28T00:45:37;24.77;;;23.07;;
15905;SDS011;8051;50.820;4.884;2023-02-28T00:48:05;27.23;;;24.57;;
15905;SDS011;8051;50.820;4.884;2023-02-28T00:50:32;25.50;;;23.80;;
15905;SDS011;8051;50.820;4.884;2023-02-28T00:53:01;26.67;;;24.67;;
15905;SDS011;8051;50.820;4.884;2023-02-28T00:55:29;26.97;;;25.00;;
15905;SDS011;8051;50.820;4.884;2023-02-28T00:57:56;27.30;;;25.27;;
15905;SDS011;8051;50.820;4.884;2023-02-28T01:00:24;26.47;;;24.60;;
15905;SDS011;8051;50.820;4.884;2023-02-28T01:02:51;26.07;;;24.17;;
15905;SDS011;8051;50.820;4.884;2023-02-28T01:05:19;27.13;;;25.07;;
15905;SDS011;8051;50.820;4.884;2023-02-28T01:07:46;26.17;;;24.57;;
15905;SDS011;8051;50.820;4.884;2023-02-28T01:10:15;26.27;;;24.60;;
15905;SDS011;8051;50.820;4.884;2023-02-28T01:12:43;25.93;;;24.33;;
15905;SDS011;8051;50.820;4.884;2023-02-28T01:15:11;27.67;;;25.73;;
15905;SDS011;8051;50.820;4.884;2023-02-28T01:17:38;26.53;;;24.47;;
15905;SDS011;8051;50.820;4.884;2023-02-28T01:20:06;27.10;;;25.17;;
15905;SDS011;8051;50.820;4.884;2023-02-28T01:22:34;27.23;;;25.43;;
15905;SDS011;8051;50.820;4.884;2023-02-28T01:25:02;27.37;;;25.43;;
15905;SDS011;8051;50.820;4.884;2023-02-28T01:27:31;28.73;;;26.10;;
15905;SDS011;8051;50.820;4.884;2023-02-28T01:30:01;28.60;;;26.60;;
15905;SDS011;8051;50.820;4.884;2023-02-28T01:32:28;28.00;;;26.00;;
15905;SDS011;8051;50.820;4.884;2023-02-28T01:34:56;26.97;;;25.27;;
15905;SDS011;8051;50.820;4.884;2023-02-28T01:37:23;28.80;;;26.80;;
15905;SDS011;8051;50.820;4.884;2023-02-28T01:39:51;27.67;;;25.77;;
15905;SDS011;8051;50.820;4.884;2023-02-28T01:42:18;28.23;;;26.33;;
15905;SDS011;8051;50.820;4.884;2023-02-28T01:44:59;27.33;;;25.50;;
15905;SDS011;8051;50.820;4.884;2023-02-28T01:47:30;27.93;;;26.13;;
15905;SDS011;8051;50.820;4.884;2023-02-28T01:50:06;27.67;;;25.87;;
15905;SDS011;8051;50.820;4.884;2023-02-28T01:52:38;28.70;;;26.67;;
15905;SDS011;8051;50.820;4.884;2023-02-28T01:55:07;28.73;;;26.83;;
15905;SDS011;8051;50.820;4.884;2023-02-28T01:57:37;29.10;;;27.10;;
15905;SDS011;8051;50.820;4.884;2023-02-28T02:00:11;28.37;;;26.43;;
15905;SDS011;8051;50.820;4.884;2023-02-28T02:02:41;28.87;;;26.93;;
15905;SDS011;8051;50.820;4.884;2023-02-28T02:05:11;28.63;;;26.73;;
15905;SDS011;8051;50.820;4.884;2023-02-28T02:07:42;29.63;;;27.53;;
15905;SDS011;8051;50.820;4.884;2023-02-28T02:10:12;29.53;;;27.43;;
15905;SDS011;8051;50.820;4.884;2023-02-28T02:12:52;30.30;;;27.93;;
15905;SDS011;8051;50.820;4.884;2023-02-28T02:15:40;31.00;;;27.77;;
15905;SDS011;8051;50.820;4.884;2023-02-28T02:18:13;29.27;;;26.77;;
15905;SDS011;8051;50.820;4.884;2023-02-28T02:24:11;29.03;;;27.10;;
15905;SDS011;8051;50.820;4.884;2023-02-28T02:27:06;29.37;;;27.17;;
15905;SDS011;8051;50.820;4.884;2023-02-28T02:29:51;28.87;;;26.70;;
15905;SDS011;8051;50.820;4.884;2023-02-28T02:33:08;29.33;;;26.67;;
15905;SDS011;8051;50.820;4.884;2023-02-28T02:35:59;29.13;;;27.00;;
15905;SDS011;8051;50.820;4.884;2023-02-28T02:38:33;29.60;;;27.13;;
15905;SDS011;8051;50.820;4.884;2023-02-28T02:41:14;28.67;;;26.40;;
15905;SDS011;8051;50.820;4.884;2023-02-28T02:43:46;28.13;;;26.03;;
15905;SDS011;8051;50.820;4.884;2023-02-28T02:46:19;28.53;;;26.47;;
15905;SDS011;8051;50.820;4.884;2023-02-28T02:48:50;28.67;;;26.63;;
15905;SDS011;8051;50.820;4.884;2023-02-28T02:51:22;29.87;;;27.87;;
15905;SDS011;8051;50.820;4.884;2023-02-28T02:53:53;29.23;;;26.77;;
15905;SDS011;8051;50.820;4.884;2023-02-28T02:56:25;28.97;;;26.63;;
15905;SDS011;8051;50.820;4.884;2023-02-28T02:58:56;28.60;;;26.77;;
15905;SDS011;8051;50.820;4.884;2023-02-28T03:01:26;29.63;;;27.13;;
15905;SDS011;8051;50.820;4.884;2023-02-28T03:03:58;29.60;;;27.37;;
15905;SDS011;8051;50.820;4.884;2023-02-28T03:06:30;29.17;;;27.17;;
15905;SDS011;8051;50.820;4.884;2023-02-28T03:08:59;29.47;;;27.17;;
15905;SDS011;8051;50.820;4.884;2023-02-28T03:11:27;29.13;;;27.23;;
15905;SDS011;8051;50.820;4.884;2023-02-28T03:13:58;29.10;;;27.17;;
15905;SDS011;8051;50.820;4.884;2023-02-28T03:16:40;29.77;;;27.53;;
15905;SDS011;8051;50.820;4.884;2023-02-28T03:19:33;29.00;;;27.03;;
15905;SDS011;8051;50.820;4.884;2023-02-28T03:22:24;28.80;;;26.90;;
15905;SDS011;8051;50.820;4.884;2023-02-28T03:25:07;29.83;;;27.83;;
15905;SDS011;8051;50.820;4.884;2023-02-28T03:27:40;29.57;;;27.67;;
15905;SDS011;8051;50.820;4.884;2023-02-28T03:30:19;29.60;;;27.27;;
15905;SDS011;8051;50.820;4.884;2023-02-28T03:32:53;29.63;;;27.43;;
15905;SDS011;8051;50.820;4.884;2023-02-28T03:35:24;30.13;;;27.60;;
15905;SDS011;8051;50.820;4.884;2023-02-28T03:38:00;28.83;;;26.83;;
15905;SDS011;8051;50.820;4.884;2023-02-28T03:40:33;29.67;;;27.47;;
15905;SDS011;8051;50.820;4.884;2023-02-28T03:43:07;32.03;;;28.80;;
15905;SDS011;8051;50.820;4.884;2023-02-28T03:45:37;30.33;;;28.13;;
15905;SDS011;8051;50.820;4.884;2023-02-28T03:48:08;28.10;;;25.93;;
15905;SDS011;8051;50.820;4.884;2023-02-28T03:50:40;30.83;;;28.33;;
15905;SDS011;8051;50.820;4.884;2023-02-28T03:53:10;32.63;;;29.90;;
15905;SDS011;8051;50.820;4.884;2023-02-28T03:55:40;32.87;;;30.10;;
15905;SDS011;8051;50.820;4.884;2023-02-28T03:58:12;31.00;;;28.70;;
15905;SDS011;8051;50.820;4.884;2023-02-28T04:00:45;25.57;;;23.87;;
15905;SDS011;8051;50.820;4.884;2023-02-28T04:03:16;31.50;;;29.00;;
15905;SDS011;8051;50.820;4.884;2023-02-28T04:05:45;30.83;;;28.63;;
15905;SDS011;8051;50.820;4.884;2023-02-28T04:08:18;30.00;;;27.60;;
15905;SDS011;8051;50.820;4.884;2023-02-28T04:10:49;32.03;;;29.70;;
15905;SDS011;8051;50.820;4.884;2023-02-28T04:13:22;31.83;;;29.43;;
15905;SDS011;8051;50.820;4.884;2023-02-28T04:15:49;31.57;;;29.47;;
15905;SDS011;8051;50.820;4.884;2023-02-28T04:18:17;32.50;;;30.30;;
15905;SDS011;8051;50.820;4.884;2023-02-28T04:20:44;31.47;;;29.37;;
15905;SDS011;8051;50.820;4.884;2023-02-28T04:23:12;29.93;;;27.93;;
15905;SDS011;8051;50.820;4.884;2023-02-28T04:25:41;31.40;;;29.10;;
15905;SDS011;8051;50.820;4.884;2023-02-28T04:28:08;30.50;;;28.10;;
15905;SDS011;8051;50.820;4.884;2023-02-28T04:30:37;31.07;;;28.77;;
15905;SDS011;8051;50.820;4.884;2023-02-28T04:33:05;30.37;;;28.23;;
15905;SDS011;8051;50.820;4.884;2023-02-28T04:35:33;30.73;;;28.43;;
15905;SDS011;8051;50.820;4.884;2023-02-28T04:38:00;32.23;;;29.77;;
15905;SDS011;8051;50.820;4.884;2023-02-28T04:40:28;32.17;;;29.67;;
15905;SDS011;8051;50.820;4.884;2023-02-28T04:42:56;30.87;;;28.77;;
15905;SDS011;8051;50.820;4.884;2023-02-28T04:45:24;29.50;;;27.30;;
15905;SDS011;8051;50.820;4.884;2023-02-28T04:47:51;31.40;;;29.40;;
15905;SDS011;8051;50.820;4.884;2023-02-28T04:50:19;32.37;;;29.83;;
15905;SDS011;8051;50.820;4.884;2023-02-28T04:52:46;27.77;;;25.53;;
15905;SDS011;8051;50.820;4.884;2023-02-28T04:55:14;31.77;;;29.27;;
15905;SDS011;8051;50.820;4.884;2023-02-28T04:57:41;27.10;;;25.40;;
15905;SDS011;8051;50.820;4.884;2023-02-28T05:00:11;29.13;;;27.13;;
15905;SDS011;8051;50.820;4.884;2023-02-28T05:02:41;29.53;;;27.53;;
15905;SDS011;8051;50.820;4.884;2023-02-28T05:05:09;32.13;;;29.43;;
15905;SDS011;8051;50.820;4.884;2023-02-28T05:07:41;29.33;;;27.10;;
15905;SDS011;8051;50.820;4.884;2023-02-28T05:10:09;26.87;;;25.13;;
15905;SDS011;8051;50.820;4.884;2023-02-28T05:12:37;32.57;;;30.20;;
15905;SDS011;8051;50.820;4.884;2023-02-28T05:15:05;31.47;;;29.27;;
15905;SDS011;8051;50.820;4.884;2023-02-28T05:17:36;29.13;;;26.73;;
15905;SDS011;8051;50.820;4.884;2023-02-28T05:20:04;33.83;;;30.70;;
15905;SDS011;8051;50.820;4.884;2023-02-28T05:22:34;31.63;;;29.23;;
15905;SDS011;8051;50.820;4.884;2023-02-28T05:25:01;33.87;;;31.33;;
15905;SDS011;8051;50.820;4.884;2023-02-28T05:27:29;34.47;;;30.93;;
15905;SDS011;8051;50.820;4.884;2023-02-28T05:29:57;34.97;;;32.03;;
15905;SDS011;8051;50.820;4.884;2023-02-28T05:32:24;34.77;;;32.27;;
15905;SDS011;8051;50.820;4.884;2023-02-28T05:34:53;36.43;;;33.33;;
15905;SDS011;8051;50.820;4.884;2023-02-28T05:37:21;35.67;;;32.70;;
15905;SDS011;8051;50.820;4.884;2023-02-28T05:39:48;34.00;;;31.50;;
15905;SDS011;8051;50.820;4.884;2023-02-28T05:42:15;34.27;;;31.77;;
15905;SDS011;8051;50.820;4.884;2023-02-28T05:44:43;35.03;;;32.30;;
15905;SDS011;8051;50.820;4.884;2023-02-28T05:47:11;31.70;;;29.47;;
15905;SDS011;8051;50.820;4.884;2023-02-28T05:49:40;34.23;;;31.37;;
15905;SDS011;8051;50.820;4.884;2023-02-28T05:52:09;33.47;;;30.67;;
15905;SDS011;8051;50.820;4.884;2023-02-28T05:54:37;33.17;;;30.67;;
15905;SDS011;8051;50.820;4.884;2023-02-28T05:57:04;31.10;;;28.93;;
15905;SDS011;8051;50.820;4.884;2023-02-28T05:59:31;35.37;;;32.57;;
15905;SDS011;8051;50.820;4.884;2023-02-28T06:01:59;33.40;;;30.87;;
15905;SDS011;8051;50.820;4.884;2023-02-28T06:04:26;37.37;;;34.43;;
15905;SDS011;8051;50.820;4.884;2023-02-28T06:06:54;33.37;;;30.37;;
15905;SDS011;8051;50.820;4.884;2023-02-28T06:09:24;31.77;;;29.33;;
15905;SDS011;8051;50.820;4.884;2023-02-28T06:11:51;32.93;;;30.57;;
15905;SDS011;8051;50.820;4.884;2023-02-28T06:14:19;32.60;;;30.10;;
15905;SDS011;8051;50.820;4.884;2023-02-28T06:16:47;33.23;;;30.53;;
15905;SDS011;8051;50.820;4.884;2023-02-28T06:19:14;34.07;;;31.67;;
15905;SDS011;8051;50.820;4.884;2023-02-28T06:21:42;37.73;;;35.13;;
15905;SDS011;8051;50.820;4.884;2023-02-28T06:24:10;34.03;;;31.13;;
15905;SDS011;8051;50.820;4.884;2023-02-28T06:26:39;32.27;;;29.87;;
15905;SDS011;8051;50.820;4.884;2023-02-28T06:29:06;32.47;;;29.77;;
15905;SDS011;8051;50.820;4.884;2023-02-28T06:31:34;33.30;;;30.80;;
15905;SDS011;8051;50.820;4.884;2023-02-28T06:34:01;38.53;;;34.80;;
15905;SDS011;8051;50.820;4.884;2023-02-28T06:36:29;36.93;;;33.90;;
15905;SDS011;8051;50.820;4.884;2023-02-28T06:38:56;35.57;;;32.83;;
15905;SDS011;8051;50.820;4.884;2023-02-28T06:41:24;32.67;;;30.30;;
15905;SDS011;8051;50.820;4.884;2023-02-28T06:43:54;35.83;;;32.93;;
15905;SDS011;8051;50.820;4.884;2023-02-28T06:46:21;34.80;;;31.77;;
15905;SDS011;8051;50.820;4.884;2023-02-28T06:48:48;36.07;;;33.33;;
15905;SDS011;8051;50.820;4.884;2023-02-28T06:51:17;37.37;;;34.27;;
15905;SDS011;8051;50.820;4.884;2023-02-28T06:53:47;35.63;;;32.60;;
15905;SDS011;8051;50.820;4.884;2023-02-28T06:56:15;36.33;;;32.80;;
15905;SDS011;8051;50.820;4.884;2023-02-28T06:58:45;34.63;;;32.17;;
15905;SDS011;8051;50.820;4.884;2023-02-28T07:01:15;31.77;;;29.33;;
15905;SDS011;8051;50.820;4.884;2023-02-28T07:03:42;31.30;;;28.53;;
15905;SDS011;8051;50.820;4.884;2023-02-28T07:06:10;29.80;;;27.60;;
15905;SDS011;8051;50.820;4.884;2023-02-28T07:08:37;31.17;;;28.53;;
15905;SDS011;8051;50.820;4.884;2023-02-28T07:11:06;31.90;;;29.33;;
15905;SDS011;8051;50.820;4.884;2023-02-28T07:13:33;30.47;;;28.10;;
15905;SDS011;8051;50.820;4.884;2023-02-28T07:16:02;29.60;;;27.50;;
15905;SDS011;8051;50.820;4.884;2023-02-28T07:18:32;30.00;;;27.70;;
15905;SDS011;8051;50.820;4.884;2023-02-28T07:21:01;27.83;;;25.87;;
15905;SDS011;8051;50.820;4.884;2023-02-28T07:23:29;30.17;;;27.80;;
15905;SDS011;8051;50.820;4.884;2023-02-28T07:25:57;31.40;;;29.30;;
15905;SDS011;8051;50.820;4.884;2023-02-28T07:28:24;32.37;;;29.63;;
15905;SDS011;8051;50.820;4.884;2023-02-28T07:30:52;29.57;;;27.00;;
15905;SDS011;8051;50.820;4.884;2023-02-28T07:33:20;30.53;;;28.33;;
15905;SDS011;8051;50.820;4.884;2023-02-28T07:35:50;30.50;;;28.17;;
15905;SDS011;8051;50.820;4.884;2023-02-28T07:38:17;30.73;;;28.37;;
15905;SDS011;8051;50.820;4.884;2023-02-28T07:40:45;28.00;;;25.93;;
15905;SDS011;8051;50.820;4.884;2023-02-28T07:43:12;29.50;;;27.27;;
15905;SDS011;8051;50.820;4.884;2023-02-28T07:45:40;29.70;;;27.17;;
15905;SDS011;8051;50.820;4.884;2023-02-28T07:48:07;28.00;;;26.00;;
15905;SDS011;8051;50.820;4.884;2023-02-28T07:50:35;30.43;;;27.93;;
15905;SDS011;8051;50.820;4.884;2023-02-28T07:53:04;27.20;;;24.93;;
15905;SDS011;8051;50.820;4.884;2023-02-28T07:55:31;27.67;;;25.10;;
15905;SDS011;8051;50.820;4.884;2023-02-28T07:57:59;27.30;;;25.10;;
15905;SDS011;8051;50.820;4.884;2023-02-28T08:00:27;25.23;;;23.43;;
15905;SDS011;8051;50.820;4.884;2023-02-28T08:02:56;24.70;;;23.00;;
15905;SDS011;8051;50.820;4.884;2023-02-28T08:05:23;23.13;;;21.53;;
15905;SDS011;8051;50.820;4.884;2023-02-28T08:07:51;24.33;;;22.10;;
15905;SDS011;8051;50.820;4.884;2023-02-28T08:10:20;23.37;;;21.53;;
15905;SDS011;8051;50.820;4.884;2023-02-28T08:12:48;22.70;;;21.10;;
15905;SDS011;8051;50.820;4.884;2023-02-28T08:15:15;22.73;;;21.23;;
15905;SDS011;8051;50.820;4.884;2023-02-28T08:17:43;24.03;;;22.33;;
15905;SDS011;8051;50.820;4.884;2023-02-28T08:20:10;22.97;;;21.27;;
15905;SDS011;8051;50.820;4.884;2023-02-28T08:22:38;21.70;;;19.97;;
15905;SDS011;8051;50.820;4.884;2023-02-28T08:25:07;22.43;;;21.00;;
15905;SDS011;8051;50.820;4.884;2023-02-28T08:27:36;21.87;;;20.03;;
15905;SDS011;8051;50.820;4.884;2023-02-28T08:30:04;20.43;;;19.17;;
15905;SDS011;8051;50.820;4.884;2023-02-28T08:32:35;22.50;;;20.73;;
15905;SDS011;8051;50.820;4.884;2023-02-28T08:35:02;22.33;;;20.83;;
15905;SDS011;8051;50.820;4.884;2023-02-28T08:37:30;21.37;;;19.87;;
15905;SDS011;8051;50.820;4.884;2023-02-28T08:39:58;21.87;;;20.43;;
15905;SDS011;8051;50.820;4.884;2023-02-28T08:42:25;22.93;;;21.43;;
15905;SDS011;8051;50.820;4.884;2023-02-28T08:44:54;21.10;;;19.83;;
15905;SDS011;8051;50.820;4.884;2023-02-28T08:47:22;21.10;;;19.60;;
15905;SDS011;8051;50.820;4.884;2023-02-28T08:49:49;21.77;;;20.37;;
15905;SDS011;8051;50.820;4.884;2023-02-28T08:52:17;19.97;;;18.73;;
15905;SDS011;8051;50.820;4.884;2023-02-28T08:54:44;19.80;;;18.30;;
15905;SDS011;8051;50.820;4.884;2023-02-28T08:57:12;20.00;;;18.50;;
15905;SDS011;8051;50.820;4.884;2023-02-28T08:59:39;19.10;;;17.90;;
15905;SDS011;8051;50.820;4.884;2023-02-28T09:02:09;19.17;;;17.97;;
15905;SDS011;8051;50.820;4.884;2023-02-28T09:04:40;18.03;;;16.90;;
15905;SDS011;8051;50.820;4.884;2023-02-28T09:07:10;19.80;;;18.30;;
15905;SDS011;8051;50.820;4.884;2023-02-28T09:09:38;19.43;;;18.03;;
15905;SDS011;8051;50.820;4.884;2023-02-28T09:12:19;18.70;;;17.60;;
15905;SDS011;8051;50.820;4.884;2023-02-28T09:14:47;19.47;;;17.80;;
15905;SDS011;8051;50.820;4.884;2023-02-28T09:17:16;19.53;;;18.00;;
15905;SDS011;8051;50.820;4.884;2023-02-28T09:19:44;19.57;;;18.17;;
15905;SDS011;8051;50.820;4.884;2023-02-28T09:22:11;17.87;;;16.73;;
15905;SDS011;8051;50.820;4.884;2023-02-28T09:24:39;17.03;;;15.63;;
15905;SDS011;8051;50.820;4.884;2023-02-28T09:27:06;16.43;;;15.30;;
15905;SDS011;8051;50.820;4.884;2023-02-28T09:29:34;19.33;;;17.83;;
15905;SDS011;8051;50.820;4.884;2023-02-28T09:32:02;17.60;;;16.40;;
15905;SDS011;8051;50.820;4.884;2023-02-28T09:34:32;15.87;;;14.93;;
15905;SDS011;8051;50.820;4.884;2023-02-28T09:37:02;18.03;;;16.63;;
15905;SDS011;8051;50.820;4.884;2023-02-28T09:39:29;16.43;;;15.53;;
15905;SDS011;8051;50.820;4.884;2023-02-28T09:41:57;16.50;;;15.47;;
15905;SDS011;8051;50.820;4.884;2023-02-28T09:44:26;16.20;;;15.30;;
15905;SDS011;8051;50.820;4.884;2023-02-28T09:46:58;16.20;;;15.10;;
15905;SDS011;8051;50.820;4.884;2023-02-28T09:49:35;15.97;;;15.07;;
15905;SDS011;8051;50.820;4.884;2023-02-28T09:52:07;16.97;;;15.73;;
15905;SDS011;8051;50.820;4.884;2023-02-28T09:54:37;15.27;;;14.37;;
15905;SDS011;8051;50.820;4.884;2023-02-28T09:57:06;17.27;;;16.10;;
15905;SDS011;8051;50.820;4.884;2023-02-28T09:59:39;16.67;;;15.67;;
15905;SDS011;8051;50.820;4.884;2023-02-28T10:02:15;16.53;;;15.43;;
15905;SDS011;8051;50.820;4.884;2023-02-28T10:04:53;15.73;;;14.80;;
15905;SDS011;8051;50.820;4.884;2023-02-28T10:07:31;16.33;;;15.43;;
15905;SDS011;8051;50.820;4.884;2023-02-28T10:10:07;14.23;;;13.30;;
15905;SDS011;8051;50.820;4.884;2023-02-28T10:12:46;13.87;;;13.07;;
15905;SDS011;8051;50.820;4.884;2023-02-28T10:15:15;14.53;;;13.70;;
15905;SDS011;8051;50.820;4.884;2023-02-28T10:17:44;14.33;;;13.37;;
15905;SDS011;8051;50.820;4.884;2023-02-28T10:20:17;15.13;;;14.13;;
15905;SDS011;8051;50.820;4.884;2023-02-28T10:22:50;14.20;;;13.20;;
15905;SDS011;8051;50.820;4.884;2023-02-28T10:25:24;14.30;;;13.40;;
15905;SDS011;8051;50.820;4.884;2023-02-28T10:27:52;14.17;;;13.03;;
15905;SDS011;8051;50.820;4.884;2023-02-28T10:30:23;13.53;;;12.70;;
15905;SDS011;8051;50.820;4.884;2023-02-28T10:32:52;13.90;;;13.10;;
15905;SDS011;8051;50.820;4.884;2023-02-28T10:35:22;13.10;;;12.20;;
15905;SDS011;8051;50.820;4.884;2023-02-28T10:37:52;12.73;;;11.83;;
15905;SDS011;8051;50.820;4.884;2023-02-28T10:40:31;13.50;;;12.50;;
15905;SDS011;8051;50.820;4.884;2023-02-28T10:43:03;13.57;;;12.60;;
15905;SDS011;8051;50.820;4.884;2023-02-28T10:45:31;11.53;;;10.73;;
15905;SDS011;8051;50.820;4.884;2023-02-28T10:48:04;9.27;;;8.53;;
15905;SDS011;8051;50.820;4.884;2023-02-28T10:50:36;11.20;;;10.23;;
15905;SDS011;8051;50.820;4.884;2023-02-28T10:56:03;11.23;;;10.53;;
15905;SDS011;8051;50.820;4.884;2023-02-28T10:58:45;12.13;;;11.40;;
15905;SDS011;8051;50.820;4.884;2023-02-28T11:01:20;12.07;;;11.37;;
15905;SDS011;8051;50.820;4.884;2023-02-28T11:03:53;12.43;;;11.63;;
15905;SDS011;8051;50.820;4.884;2023-02-28T11:06:22;11.53;;;10.77;;
15905;SDS011;8051;50.820;4.884;2023-02-28T11:08:53;11.53;;;10.67;;
15905;SDS011;8051;50.820;4.884;2023-02-28T11:11:25;11.77;;;11.07;;
15905;SDS011;8051;50.820;4.884;2023-02-28T11:13:55;13.23;;;12.50;;
15905;SDS011;8051;50.820;4.884;2023-02-28T11:16:32;13.63;;;12.93;;
15905;SDS011;8051;50.820;4.884;2023-02-28T11:19:00;12.73;;;12.03;;
15905;SDS011;8051;50.820;4.884;2023-02-28T11:21:31;14.03;;;13.23;;
15905;SDS011;8051;50.820;4.884;2023-02-28T11:24:00;13.47;;;12.77;;
15905;SDS011;8051;50.820;4.884;2023-02-28T11:26:38;12.23;;;11.63;;
15905;SDS011;8051;50.820;4.884;2023-02-28T11:29:11;10.50;;;9.90;;
15905;SDS011;8051;50.820;4.884;2023-02-28T11:31:45;11.00;;;10.40;;
15905;SDS011;8051;50.820;4.884;2023-02-28T11:34:29;9.70;;;9.17;;
15905;SDS011;8051;50.820;4.884;2023-02-28T11:36:59;11.27;;;10.57;;
15905;SDS011;8051;50.820;4.884;2023-02-28T11:39:30;12.33;;;11.63;;
15905;SDS011;8051;50.820;4.884;2023-02-28T11:42:02;10.40;;;9.80;;
15905;SDS011;8051;50.820;4.884;2023-02-28T11:44:41;9.80;;;9.00;;
15905;SDS011;8051;50.820;4.884;2023-02-28T11:47:21;12.07;;;11.17;;
15905;SDS011;8051;50.820;4.884;2023-02-28T11:50:03;11.10;;;10.43;;
15905;SDS011;8051;50.820;4.884;2023-02-28T11:52:44;9.53;;;9.13;;
15905;SDS011;8051;50.820;4.884;2023-02-28T11:55:19;9.33;;;8.70;;
15905;SDS011;8051;50.820;4.884;2023-02-28T11:57:56;10.70;;;10.10;;
15905;SDS011;8051;50.820;4.884;2023-02-28T12:00:39;9.00;;;8.50;;
15905;SDS011;8051;50.820;4.884;2023-02-28T12:03:19;10.70;;;10.10;;
15905;SDS011;8051;50.820;4.884;2023-02-28T12:05:54;12.13;;;11.13;;
15905;SDS011;8051;50.820;4.884;2023-02-28T12:08:36;12.13;;;11.43;;
15905;SDS011;8051;50.820;4.884;2023-02-28T12:11:19;10.70;;;10.17;;
15905;SDS011;8051;50.820;4.884;2023-02-28T12:13:59;12.03;;;11.40;;
15905;SDS011;8051;50.820;4.884;2023-02-28T12:16:44;12.47;;;11.23;;
15905;SDS011;8051;50.820;4.884;2023-02-28T12:19:25;12.00;;;11.10;;
15905;SDS011;8051;50.820;4.884;2023-02-28T12:28:00;12.63;;;12.03;;
15905;SDS011;8051;50.820;4.884;2023-02-28T12:30:29;13.03;;;12.40;;
15905;SDS011;8051;50.820;4.884;2023-02-28T12:33:02;13.97;;;13.27;;
15905;SDS011;8051;50.820;4.884;2023-02-28T12:35:33;14.07;;;12.73;;
15905;SDS011;8051;50.820;4.884;2023-02-28T12:38:05;12.57;;;11.97;;
15905;SDS011;8051;50.820;4.884;2023-02-28T12:40:41;12.27;;;11.57;;
15905;SDS011;8051;50.820;4.884;2023-02-28T12:43:15;13.23;;;12.43;;
15905;SDS011;8051;50.820;4.884;2023-02-28T12:45:45;13.37;;;12.67;;
15905;SDS011;8051;50.820;4.884;2023-02-28T12:48:18;12.40;;;11.60;;
15905;SDS011;8051;50.820;4.884;2023-02-28T12:50:50;13.67;;;12.87;;
15905;SDS011;8051;50.820;4.884;2023-02-28T12:53:21;13.00;;;12.30;;
15905;SDS011;8051;50.820;4.884;2023-02-28T12:55:56;12.20;;;11.40;;
15905;SDS011;8051;50.820;4.884;2023-02-28T12:58:35;13.70;;;12.67;;
15905;SDS011;8051;50.820;4.884;2023-02-28T13:10:12;13.07;;;12.43;;
15905;SDS011;8051;50.820;4.884;2023-02-28T13:12:47;13.17;;;12.27;;
15905;SDS011;8051;50.820;4.884;2023-02-28T13:15:18;12.77;;;12.07;;
15905;SDS011;8051;50.820;4.884;2023-02-28T13:17:49;12.83;;;12.03;;
15905;SDS011;8051;50.820;4.884;2023-02-28T13:20:19;12.60;;;12.00;;
15905;SDS011;8051;50.820;4.884;2023-02-28T13:22:48;14.03;;;13.17;;
15905;SDS011;8051;50.820;4.884;2023-02-28T13:34:35;13.27;;;12.43;;
15905;SDS011;8051;50.820;4.884;2023-02-28T13:40:26;12.83;;;12.03;;
15905;SDS011;8051;50.820;4.884;2023-02-28T13:43:02;11.53;;;10.83;;
15905;SDS011;8051;50.820;4.884;2023-02-28T13:45:33;13.67;;;12.27;;
15905;SDS011;8051;50.820;4.884;2023-02-28T13:48:03;12.10;;;11.40;;
15905;SDS011;8051;50.820;4.884;2023-02-28T13:50:44;12.30;;;11.60;;
15905;SDS011;8051;50.820;4.884;2023-02-28T13:53:28;13.03;;;12.23;;
15905;SDS011;8051;50.820;4.884;2023-02-28T13:56:08;13.40;;;12.40;;
15905;SDS011;8051;50.820;4.884;2023-02-28T13:58:51;11.80;;;11.10;;
15905;SDS011;8051;50.820;4.884;2023-02-28T14:01:31;13.03;;;12.23;;
15905;SDS011;8051;50.820;4.884;2023-02-28T14:07:19;12.90;;;12.20;;
15905;SDS011;8051;50.820;4.884;2023-02-28T14:09:52;13.40;;;12.60;;
15905;SDS011;8051;50.820;4.884;2023-02-28T14:15:39;13.57;;;12.67;;
15905;SDS011;8051;50.820;4.884;2023-02-28T14:18:25;13.97;;;12.97;;
15905;SDS011;8051;50.820;4.884;2023-02-28T14:21:02;13.70;;;12.80;;
15905;SDS011;8051;50.820;4.884;2023-02-28T14:26:53;11.80;;;11.13;;
15905;SDS011;8051;50.820;4.884;2023-02-28T14:29:31;13.23;;;12.17;;
15905;SDS011;8051;50.820;4.884;2023-02-28T14:32:19;12.53;;;11.73;;
15905;SDS011;8051;50.820;4.884;2023-02-28T14:34:57;12.27;;;11.57;;
15905;SDS011;8051;50.820;4.884;2023-02-28T14:37:32;12.67;;;11.80;;
15905;SDS011;8051;50.820;4.884;2023-02-28T14:40:11;12.00;;;11.20;;
15905;SDS011;8051;50.820;4.884;2023-02-28T14:42:45;12.03;;;10.97;;
15905;SDS011;8051;50.820;4.884;2023-02-28T14:45:18;13.23;;;12.50;;
15905;SDS011;8051;50.820;4.884;2023-02-28T14:47:46;14.03;;;13.17;;
15905;SDS011;8051;50.820;4.884;2023-02-28T14:50:18;12.53;;;11.83;;
15905;SDS011;8051;50.820;4.884;2023-02-28T14:52:47;13.57;;;12.67;;
15905;SDS011;8051;50.820;4.884;2023-02-28T14:55:19;13.30;;;12.50;;
15905;SDS011;8051;50.820;4.884;2023-02-28T14:57:52;12.50;;;11.87;;
15905;SDS011;8051;50.820;4.884;2023-02-28T15:00:22;13.03;;;12.03;;
15905;SDS011;8051;50.820;4.884;2023-02-28T15:02:51;13.50;;;12.70;;
15905;SDS011;8051;50.820;4.884;2023-02-28T15:05:23;13.60;;;12.80;;
15905;SDS011;8051;50.820;4.884;2023-02-28T15:08:02;12.60;;;11.70;;
15905;SDS011;8051;50.820;4.884;2023-02-28T15:10:33;13.67;;;12.70;;
15905;SDS011;8051;50.820;4.884;2023-02-28T15:13:01;12.73;;;12.00;;
15905;SDS011;8051;50.820;4.884;2023-02-28T15:15:35;11.67;;;10.97;;
15905;SDS011;8051;50.820;4.884;2023-02-28T15:18:10;11.70;;;11.10;;
15905;SDS011;8051;50.820;4.884;2023-02-28T15:20:45;12.77;;;11.87;;
15905;SDS011;8051;50.820;4.884;2023-02-28T15:23:13;11.70;;;11.00;;
15905;SDS011;8051;50.820;4.884;2023-02-28T15:25:43;11.33;;;10.53;;
15905;SDS011;8051;50.820;4.884;2023-02-28T15:28:13;12.83;;;11.97;;
15905;SDS011;8051;50.820;4.884;2023-02-28T15:30:50;11.90;;;11.10;;
15905;SDS011;8051;50.820;4.884;2023-02-28T15:33:23;11.83;;;10.93;;
15905;SDS011;8051;50.820;4.884;2023-02-28T15:36:02;12.17;;;11.37;;
15905;SDS011;8051;50.820;4.884;2023-02-28T15:38:33;11.00;;;10.20;;
15905;SDS011;8051;50.820;4.884;2023-02-28T15:41:04;11.37;;;10.60;;
15905;SDS011;8051;50.820;4.884;2023-02-28T15:43:34;12.43;;;11.73;;